createdAt,value
2023-03-23T15:59:25.460Z,13.65
2023-03-23T16:04:31.426Z,13.40
2023-03-23T16:09:35.697Z,12.18
2023-03-23T16:14:40.593Z,10.40
2023-03-23T16:19:46.171Z,9.98
2023-03-23T16:24:50.325Z,10.45
2023-03-23T16:30:02.913Z,11.48
2023-03-23T16:35:10.429Z,8.60
2023-03-23T16:40:16.533Z,7.70
2023-03-23T16:45:21.181Z,10.63
2023-03-23T16:50:26.760Z,16.58
2023-03-23T16:55:32.719Z,21.63
2023-03-23T17:00:38.518Z,21.60
2023-03-23T17:05:45.228Z,13.30
2023-03-23T17:10:49.874Z,12.95
2023-03-23T17:15:56.769Z,10.82
2023-03-23T17:21:02.395Z,12.23
2023-03-23T17:26:07.375Z,13.73
2023-03-23T17:31:11.887Z,15.40
2023-03-23T17:36:17.582Z,13.55
2023-03-23T17:41:22.088Z,13.43
2023-03-23T17:46:26.624Z,14.48
2023-03-23T17:51:32.443Z,14.20
2023-03-23T17:56:36.810Z,16.33
2023-03-23T18:01:41.213Z,29.92
2023-03-23T18:06:47.336Z,28.25
2023-03-23T18:11:52.492Z,21.08
2023-03-23T18:16:57.264Z,25.98
2023-03-23T18:22:03.424Z,16.10
2023-03-23T18:27:07.786Z,20.75
2023-03-23T18:32:11.985Z,16.88
2023-03-23T18:37:18.417Z,17.30
2023-03-23T18:42:22.706Z,18.75
2023-03-23T18:47:28.686Z,15.45
2023-03-23T18:52:34.473Z,17.33
2023-03-23T18:57:40.929Z,28.35
2023-03-23T19:02:45.153Z,18.92
2023-03-23T19:07:58.556Z,20.60
2023-03-23T19:13:03.201Z,18.00
2023-03-23T19:18:08.280Z,24.77
2023-03-23T19:23:14.231Z,18.60
2023-03-23T19:33:27.253Z,17.65
2023-03-23T19:38:33.195Z,17.15
2023-03-23T19:43:37.866Z,17.20
2023-03-23T19:48:42.417Z,15.80
2023-03-23T19:53:48.745Z,18.45
2023-03-23T19:58:52.933Z,19.17
2023-03-23T20:03:59.971Z,15.93
2023-03-23T20:09:07.533Z,17.65
2023-03-23T20:14:11.905Z,17.15
2023-03-23T20:19:16.562Z,27.60
2023-03-23T20:24:22.522Z,18.52
2023-03-23T20:29:26.756Z,21.88
2023-03-23T20:34:31.645Z,22.05
2023-03-23T20:39:37.881Z,20.88
2023-03-23T20:44:43.083Z,19.45
2023-03-23T20:49:52.744Z,16.42
2023-03-23T20:55:03.352Z,17.25
2023-03-23T21:00:09.713Z,19.17
2023-03-23T21:05:14.928Z,26.38
2023-03-23T21:10:23.124Z,26.73
2023-03-23T21:15:27.764Z,19.98
2023-03-23T21:20:32.470Z,19.95
2023-03-23T21:25:38.448Z,20.73
2023-03-23T21:30:45.805Z,21.10
2023-03-23T21:35:50.331Z,26.95
2023-03-23T21:40:57.348Z,20.08
2023-03-23T21:46:05.474Z,16.20
2023-03-23T21:51:13.169Z,18.15
2023-03-23T21:56:19.464Z,12.95
2023-03-23T22:01:24.588Z,11.27
2023-03-23T22:06:31.148Z,7.38
2023-03-23T22:11:38.624Z,9.10
2023-03-23T22:16:43.004Z,12.90
2023-03-23T22:21:47.713Z,10.35
2023-03-23T22:26:53.524Z,8.10
2023-03-23T22:31:58.349Z,6.70
2023-03-23T22:37:04.294Z,6.05
2023-03-23T22:42:11.752Z,6.72
2023-03-23T22:47:17.554Z,6.75
2023-03-23T22:52:22.276Z,7.78
2023-03-23T22:57:28.137Z,7.93
2023-03-23T23:02:32.593Z,7.15
2023-03-23T23:07:36.988Z,7.45
2023-03-23T23:12:45.952Z,7.07
2023-03-23T23:17:50.360Z,7.43
2023-03-23T23:22:54.639Z,7.60
2023-03-23T23:28:02.414Z,6.40
2023-03-23T23:33:07.661Z,7.15
2023-03-23T23:38:12.833Z,6.85
2023-03-23T23:43:19.123Z,6.68
2023-03-23T23:48:23.383Z,6.18
2023-03-23T23:53:27.845Z,6.75
2023-03-23T23:58:33.882Z,5.47
